CCDLB SCLC-SCLC
Flight info
| Callsign | CCDLB |
|---|---|
| Flight time | 0h 12m |
| Altitude | 5000 |
| Route | TGL SCEL |
| Aircraft | P28B/L-LORDG/C |
Departure
| Time | 2026-04-28 17:32 |
|---|---|
| Airport | Municipal de Vitacura Airport (SCLC) |
Arrival
| Time | 2026-04-28 17:44 |
|---|---|
| Airport | Municipal de Vitacura Airport (SCLC) |
| Time | Latitude | Longitude | Altitude | Speed | Heading |
|---|---|---|---|---|---|
| 2026-04-28 17:28 | -33.37929 | -70.57539 | 2256 ft | 0 kts | 257° |
| 2026-04-28 17:30 | -33.37941 | -70.57608 | 2255 ft | 1 kts | 259° |
| 2026-04-28 17:30 | -33.37931 | -70.57649 | 2255 ft | 0 kts | 146° |
| 2026-04-28 17:30 | -33.37935 | -70.57648 | 2255 ft | 1 kts | 173° |
| 2026-04-28 17:31 | -33.37961 | -70.57656 | 2255 ft | 8 kts | 214° |
| 2026-04-28 17:31 | -33.38110 | -70.58415 | 2325 ft | 80 kts | 251° |
| 2026-04-28 17:32 | -33.38701 | -70.59671 | 2807 ft | 90 kts | 241° |
| 2026-04-28 17:32 | -33.38928 | -70.60362 | 3089 ft | 97 kts | 264° |
| 2026-04-28 17:32 | -33.38843 | -70.61213 | 3293 ft | 106 kts | 282° |
| 2026-04-28 17:32 | -33.38679 | -70.62087 | 3525 ft | 111 kts | 282° |
| 2026-04-28 17:33 | -33.38516 | -70.63044 | 3584 ft | 127 kts | 278° |
| 2026-04-28 17:33 | -33.38432 | -70.64113 | 3614 ft | 133 kts | 265° |
| 2026-04-28 17:33 | -33.38839 | -70.65107 | 3672 ft | 137 kts | 219° |
| 2026-04-28 17:33 | -33.39452 | -70.65269 | 3631 ft | 145 kts | 167° |
| 2026-04-28 17:34 | -33.39878 | -70.63946 | 3573 ft | 153 kts | 54° |
| 2026-04-28 17:34 | -33.38939 | -70.63752 | 3602 ft | 151 kts | 324° |
| 2026-04-28 17:34 | -33.38538 | -70.64851 | 3675 ft | 143 kts | 277° |
| 2026-04-28 17:34 | -33.38356 | -70.66027 | 3692 ft | 148 kts | 282° |
| 2026-04-28 17:35 | -33.38110 | -70.67257 | 3582 ft | 156 kts | 282° |
| 2026-04-28 17:35 | -33.37863 | -70.68544 | 3442 ft | 161 kts | 282° |
| 2026-04-28 17:35 | -33.37639 | -70.69842 | 3431 ft | 156 kts | 279° |
| 2026-04-28 17:35 | -33.37435 | -70.71144 | 3264 ft | 161 kts | 281° |
| 2026-04-28 17:36 | -33.37189 | -70.72456 | 3136 ft | 163 kts | 282° |
| 2026-04-28 17:36 | -33.36934 | -70.73786 | 2976 ft | 164 kts | 281° |
| 2026-04-28 17:36 | -33.36758 | -70.74954 | 2824 ft | 165 kts | 278° |
| 2026-04-28 17:36 | -33.36651 | -70.75958 | 2613 ft | 152 kts | 275° |
| 2026-04-28 17:37 | -33.36600 | -70.77174 | 2217 ft | 134 kts | 266° |
| 2026-04-28 17:37 | -33.36776 | -70.78150 | 2094 ft | 113 kts | 244° |
| 2026-04-28 17:37 | -33.37360 | -70.78685 | 1754 ft | 113 kts | 183° |
| 2026-04-28 17:37 | -33.38086 | -70.78643 | 1571 ft | 89 kts | 179° |
| 2026-04-28 17:38 | -33.38594 | -70.78614 | 1561 ft | 61 kts | 179° |
| 2026-04-28 17:38 | -33.39046 | -70.78599 | 1567 ft | 82 kts | 177° |
| 2026-04-28 17:38 | -33.39689 | -70.78494 | 1683 ft | 103 kts | 157° |
| 2026-04-28 17:38 | -33.40189 | -70.77786 | 1784 ft | 122 kts | 113° |
| 2026-04-28 17:39 | -33.40325 | -70.76777 | 1996 ft | 124 kts | 98° |
| 2026-04-28 17:39 | -33.40416 | -70.75770 | 2208 ft | 122 kts | 95° |
| 2026-04-28 17:39 | -33.40548 | -70.73762 | 2623 ft | 120 kts | 95° |
| 2026-04-28 17:40 | -33.40613 | -70.72767 | 2828 ft | 120 kts | 95° |
| 2026-04-28 17:40 | -33.40676 | -70.71773 | 3020 ft | 120 kts | 95° |
| 2026-04-28 17:40 | -33.40743 | -70.70775 | 3209 ft | 118 kts | 95° |
| 2026-04-28 17:40 | -33.40804 | -70.69816 | 3416 ft | 114 kts | 95° |
| 2026-04-28 17:41 | -33.40866 | -70.68842 | 3500 ft | 124 kts | 95° |
| 2026-04-28 17:41 | -33.40937 | -70.67763 | 3493 ft | 135 kts | 95° |
| 2026-04-28 17:41 | -33.41012 | -70.66614 | 3491 ft | 141 kts | 95° |
| 2026-04-28 17:41 | -33.41090 | -70.65424 | 3494 ft | 145 kts | 95° |
| 2026-04-28 17:42 | -33.41170 | -70.64240 | 3497 ft | 145 kts | 95° |
| 2026-04-28 17:42 | -33.41220 | -70.63422 | 3498 ft | 146 kts | 92° |
| 2026-04-28 17:42 | -33.40976 | -70.61834 | 3491 ft | 144 kts | 73° |
| 2026-04-28 17:42 | -33.40682 | -70.60711 | 3487 ft | 138 kts | 70° |
| 2026-04-28 17:43 | -33.39892 | -70.60101 | 3122 ft | 136 kts | 18° |
| 2026-04-28 17:43 | -33.39047 | -70.59747 | 2923 ft | 120 kts | 8° |
| 2026-04-28 17:43 | -33.38336 | -70.59526 | 2744 ft | 94 kts | 2° |
| 2026-04-28 17:43 | -33.38169 | -70.58856 | 2323 ft | 90 kts | 102° |
| 2026-04-28 17:44 | -33.38065 | -70.58204 | 2253 ft | 63 kts | 78° |
| 2026-04-28 17:44 | -33.37989 | -70.57923 | 2254 ft | 20 kts | 78° |